Time;durP1;ratioP1;P1;durP2;ratioP2;P2;SDS_P1;SDS_P2;PMS_P1;PMS_P2;Temp;Humidity;BMP_temperature;BMP_pressure;BME280_temperature;BME280_humidity;BME280_pressure;Samples;Min_cycle;Max_cycle;Signal;HPM_P1;HPM_P2
2023/04/25 00:01:28;;;;;;;;;7.75;5.00;;;;;19.67;42.82;100675.47;4999250;28;45466;-47
2023/04/25 00:03:53;;;;;;;;;4.00;4.00;;;;;19.66;43.16;100661.50;5014369;28;47079;-49
2023/04/25 00:06:18;;;;;;;;;2.50;2.25;;;;;19.61;42.58;100661.75;4998754;28;45451;-47
2023/04/25 00:08:44;;;;;;;;;4.00;4.00;;;;;19.65;42.49;100667.69;4997859;28;45346;-49
2023/04/25 00:11:09;;;;;;;;;3.00;3.00;;;;;19.65;42.99;100667.69;4999054;28;45567;-47
2023/04/25 00:13:35;;;;;;;;;4.00;3.00;;;;;19.66;42.42;100666.75;4999085;28;45623;-47
2023/04/25 00:16:00;;;;;;;;;3.00;3.00;;;;;19.64;42.88;100658.09;5013889;28;45385;-47
2023/04/25 00:18:29;;;;;;;;;4.25;3.00;;;;;19.62;42.74;100659.94;4998903;28;45176;-48
2023/04/25 00:20:55;;;;;;;;;4.00;4.00;;;;;19.66;42.84;100665.88;4998987;28;45371;-48
2023/04/25 00:23:20;;;;;;;;;3.00;3.00;;;;;19.66;42.78;100664.13;4998721;28;45360;-49
2023/04/25 00:25:48;;;;;;;;;3.25;3.25;;;;;19.66;42.50;100661.50;4998705;28;45451;-51
2023/04/25 00:28:14;;;;;;;;;3.50;3.50;;;;;19.63;42.47;100661.66;4998839;28;45377;-48
2023/04/25 00:30:40;;;;;;;;;2.50;2.50;;;;;19.66;42.66;100661.50;4999057;28;45360;-47
2023/04/25 00:33:06;;;;;;;;;3.50;3.50;;;;;19.66;42.25;100661.50;4998815;28;46264;-46
2023/04/25 00:35:31;;;;;;;;;3.00;3.00;;;;;19.66;42.24;100661.50;4997873;28;45415;-47
2023/04/25 00:37:57;;;;;;;;;3.00;3.00;;;;;19.65;42.65;100658.94;4998704;28;45284;-47
2023/04/25 00:40:22;;;;;;;;;2.33;2.33;;;;;19.65;42.43;100659.78;4998257;28;49574;-47
2023/04/25 00:42:51;;;;;;;;;3.25;3.25;;;;;19.66;42.84;100661.50;4998601;28;45552;-47
2023/04/25 00:45:17;;;;;;;;;2.00;2.00;;;;;19.65;42.75;100662.44;4998502;28;45780;-49
2023/04/25 00:47:43;;;;;;;;;5.00;5.00;;;;;19.65;42.70;100659.78;4998539;28;45311;-46
2023/04/25 00:50:09;;;;;;;;;2.00;2.00;;;;;19.65;42.42;100665.06;4998968;28;45607;-48
2023/04/25 00:52:37;;;;;;;;;4.00;4.00;;;;;19.65;42.57;100659.78;4998507;28;45715;-45
2023/04/25 00:55:03;;;;;;;;;3.00;3.00;;;;;19.66;42.60;100660.63;4998347;28;45436;-45
2023/04/25 00:57:29;;;;;;;;;3.00;3.00;;;;;19.66;42.36;100660.63;4998435;28;45428;-50
2023/04/25 00:59:54;;;;;;;;;4.25;4.25;;;;;19.61;42.25;100653.00;4998489;28;45295;-46
2023/04/25 01:02:21;;;;;;;;;2.00;2.00;;;;;19.65;42.36;100659.78;4998056;28;45658;-45
2023/04/25 01:04:47;;;;;;;;;4.00;4.00;;;;;19.65;42.65;100664.19;4998009;28;45856;-45
2023/04/25 01:07:13;;;;;;;;;4.75;3.25;;;;;19.65;42.50;100667.69;4998103;28;45316;-46
2023/04/25 01:09:40;;;;;;;;;3.00;3.00;;;;;19.59;42.09;100653.09;4998628;28;45351;-47
2023/04/25 01:12:06;;;;;;;;;4.75;2.50;;;;;19.64;42.04;100665.97;4998190;28;46830;-45
2023/04/25 01:14:31;;;;;;;;;3.00;3.00;;;;;19.64;42.66;100663.34;4997713;28;45414;-45
2023/04/25 01:16:58;;;;;;;;;3.00;2.00;;;;;19.58;42.21;100651.38;4998050;28;45341;-47
2023/04/25 01:19:23;;;;;;;;;4.00;3.00;;;;;19.64;42.10;100658.09;4998135;28;45233;-46
2023/04/25 01:21:49;;;;;;;;;4.75;3.50;;;;;19.63;42.13;100656.41;4997687;28;45412;-47
2023/04/25 01:24:15;;;;;;;;;3.50;2.00;;;;;19.63;42.53;100657.22;4997823;28;45415;-48
2023/04/25 01:26:44;;;;;;;;;3.25;2.75;;;;;19.63;42.32;100656.41;4998138;28;45253;-45
2023/04/25 01:29:10;;;;;;;;;3.50;3.50;;;;;19.63;42.30;100651.13;4998285;28;45493;-47
2023/04/25 01:31:36;;;;;;;;;3.00;3.00;;;;;19.59;42.00;100644.34;4997461;28;45504;-46
2023/04/25 01:34:02;;;;;;;;;2.25;2.25;;;;;19.63;42.48;100656.41;4997709;28;45217;-46
2023/04/25 01:36:28;;;;;;;;;2.00;2.00;;;;;19.63;41.99;100661.66;4997682;28;45415;-46
2023/04/25 01:38:53;;;;;;;;;2.75;2.75;;;;;19.58;42.67;100647.91;4997820;28;45320;-47
2023/04/25 01:41:19;;;;;;;;;4.00;2.50;;;;;19.60;42.00;100656.56;4997422;28;45363;-47
2023/04/25 01:43:44;;;;;;;;;3.75;2.25;;;;;19.62;42.07;100652.06;4997433;28;45637;-47
2023/04/25 01:46:11;;;;;;;;;4.00;3.25;;;;;19.62;42.13;100654.69;4996628;28;45435;-47
2023/04/25 01:48:37;;;;;;;;;3.00;3.00;;;;;19.62;41.93;100655.53;5013042;28;45347;-46
2023/04/25 01:51:02;;;;;;;;;3.25;3.25;;;;;19.61;42.17;100658.25;4997502;28;46376;-46
2023/04/25 01:53:28;;;;;;;;;2.00;2.00;;;;;19.61;42.06;100653.88;4997335;28;45264;-46
2023/04/25 01:55:53;;;;;;;;;3.75;3.25;;;;;19.61;42.46;100659.13;4997461;28;45363;-47
2023/04/25 01:58:18;;;;;;;;;5.00;3.50;;;;;19.61;41.94;100659.13;4997671;28;45272;-46
2023/04/25 02:00:44;;;;;;;;;4.00;3.00;;;;;19.61;42.31;100660.88;4997268;28;46124;-48
2023/04/25 02:03:09;;;;;;;;;4.00;3.75;;;;;19.61;42.11;100659.13;4997510;28;45247;-51
2023/04/25 02:05:39;;;;;;;;;2.00;2.00;;;;;19.56;42.51;100655.03;4997476;28;45261;-48
2023/04/25 02:08:06;;;;;;;;;2.00;2.00;;;;;19.60;42.46;100661.81;4997486;28;45296;-48
2023/04/25 02:10:32;;;;;;;;;2.75;2.75;;;;;19.55;42.59;100654.19;5012171;28;47411;-47
2023/04/25 02:12:58;;;;;;;;;3.25;3.25;;;;;19.60;42.06;100661.81;4997103;28;45430;-49
2023/04/25 02:15:23;;;;;;;;;3.25;2.00;;;;;19.55;42.33;100654.19;4996922;28;45352;-47
2023/04/25 02:17:49;;;;;;;;;2.25;2.25;;;;;19.60;42.66;100667.06;4997376;28;45553;-48
2023/04/25 02:20:15;;;;;;;;;2.50;2.50;;;;;19.60;42.41;100661.81;4996866;28;46263;-49
2023/04/25 02:22:41;;;;;;;;;3.00;3.00;;;;;19.55;42.02;100658.59;4997210;28;45839;-48
2023/04/25 02:25:07;;;;;;;;;2.75;2.25;;;;;19.59;42.36;100668.88;4997117;28;45414;-47
2023/04/25 02:27:33;;;;;;;;;3.00;3.00;;;;;19.60;42.43;100664.44;4997130;28;45245;-48
2023/04/25 02:29:58;;;;;;;;;4.00;3.00;;;;;19.59;41.93;100666.22;4996695;28;46490;-45
2023/04/25 02:32:23;;;;;;;;;2.50;2.50;;;;;19.55;42.35;100658.59;4996819;28;45300;-47
2023/04/25 02:34:49;;;;;;;;;4.00;4.00;;;;;19.59;41.81;100668.00;4996652;28;47007;-46
2023/04/25 02:37:14;;;;;;;;;2.50;2.50;;;;;19.58;42.47;100664.53;4997277;28;45269;-45
2023/04/25 02:39:39;;;;;;;;;3.00;3.00;;;;;19.54;42.38;100667.41;4996530;28;50557;-46
2023/04/25 02:42:05;;;;;;;;;2.00;2.00;;;;;19.58;41.96;100666.28;4996442;28;45342;-47
2023/04/25 02:44:30;;;;;;;;;4.00;3.67;;;;;19.58;41.81;100667.16;4996646;28;46397;-45
2023/04/25 02:46:55;;;;;;;;;4.25;3.25;;;;;19.59;41.96;100681.13;4996546;28;45526;-50
2023/04/25 02:49:20;;;;;;;;;4.00;4.00;;;;;19.59;41.96;100681.13;5011405;28;60059;-45
2023/04/25 02:51:46;;;;;;;;;3.75;3.00;;;;;19.58;41.76;100682.94;4996513;28;45407;-48
2023/04/25 02:54:11;;;;;;;;;3.00;3.00;;;;;19.58;42.43;100674.19;4996977;28;45320;-46
2023/04/25 02:56:36;;;;;;;;;3.00;3.00;;;;;19.57;42.18;100685.63;4996161;28;46087;-47
2023/04/25 02:59:02;;;;;;;;;4.25;3.75;;;;;19.58;41.95;100680.31;4996080;28;46262;-46
2023/04/25 03:01:27;;;;;;;;;3.00;3.00;;;;;19.58;41.88;100685.56;5011548;28;45332;-45
2023/04/25 03:03:52;;;;;;;;;4.00;4.00;;;;;19.53;42.19;100671.81;4996478;28;45303;-46
2023/04/25 03:06:17;;;;;;;;;3.00;3.00;;;;;19.57;42.35;100683.00;4996127;28;47084;-45
2023/04/25 03:08:43;;;;;;;;;5.00;3.00;;;;;19.56;41.74;100676.91;4997165;28;45315;-46
2023/04/25 03:11:08;;;;;;;;;5.25;4.00;;;;;19.58;41.88;100674.19;4996315;28;45335;-47
2023/04/25 03:13:33;;;;;;;;;3.75;3.00;;;;;19.54;42.42;100672.66;4996410;28;45420;-47
2023/04/25 03:15:59;;;;;;;;;3.00;3.00;;;;;19.56;41.93;100681.34;4995526;28;54883;-46
2023/04/25 03:18:24;;;;;;;;;3.00;3.00;;;;;19.56;41.81;100671.66;4996331;28;45564;-45
2023/04/25 03:20:49;;;;;;;;;3.00;3.00;;;;;19.57;42.09;100680.38;4996167;28;45337;-45
2023/04/25 03:23:15;;;;;;;;;2.00;2.00;;;;;19.56;41.76;100676.06;5011802;28;45379;-46
2023/04/25 03:25:40;;;;;;;;;3.75;3.75;;;;;19.56;41.74;100674.28;4996407;28;45170;-46
2023/04/25 03:28:05;;;;;;;;;3.00;3.00;;;;;19.56;41.93;100686.59;4995674;28;53601;-45
2023/04/25 03:30:31;;;;;;;;;3.33;2.00;;;;;19.55;42.18;100684.88;4995583;28;54257;-47
2023/04/25 03:32:56;;;;;;;;;3.50;3.50;;;;;19.55;42.37;100672.56;4996121;28;45251;-45
2023/04/25 03:35:23;;;;;;;;;3.00;3.00;;;;;19.55;42.23;100675.22;4995803;28;48868;-49
2023/04/25 03:37:48;;;;;;;;;3.25;3.00;;;;;19.51;41.87;100668.44;4995089;28;48233;-46
2023/04/25 03:40:14;;;;;;;;;3.00;3.00;;;;;19.54;41.82;100675.31;4996347;28;45249;-47
2023/04/25 03:42:39;;;;;;;;;7.00;4.25;;;;;19.54;41.82;100675.31;4996281;28;45572;-47
2023/04/25 03:45:05;;;;;;;;;4.00;3.00;;;;;19.54;41.93;100677.94;4996217;28;45617;-47
2023/04/25 03:47:30;;;;;;;;;3.25;3.00;;;;;19.53;42.30;100682.31;4995652;28;45504;-47
2023/04/25 03:49:56;;;;;;;;;5.33;4.33;;;;;19.49;42.12;100675.56;4995363;28;54969;-47
2023/04/25 03:52:21;;;;;;;;;3.00;3.00;;;;;19.55;41.84;100679.63;4995633;28;47870;-46
2023/04/25 03:54:46;;;;;;;;;3.75;3.00;;;;;19.58;42.26;100680.31;4996361;28;45405;-47
2023/04/25 03:57:12;;;;;;;;;4.00;3.50;;;;;19.64;41.95;100676.50;4995785;28;45441;-46
2023/04/25 03:59:37;;;;;;;;;5.75;3.25;;;;;19.72;42.38;100682.19;5010846;28;45362;-47
2023/04/25 04:02:02;;;;;;;;;3.00;2.25;;;;;19.79;42.30;100682.69;4995731;28;45362;-45
2023/04/25 04:04:28;;;;;;;;;4.00;3.25;;;;;19.88;41.99;100681.38;4995944;28;45451;-46
2023/04/25 04:06:53;;;;;;;;;3.00;3.00;;;;;19.95;41.92;100676.63;4995226;28;53244;-47
2023/04/25 04:09:20;;;;;;;;;5.00;3.00;;;;;20.06;41.73;100685.63;4996605;28;45414;-47
2023/04/25 04:11:45;;;;;;;;;3.25;3.00;;;;;20.15;41.90;100688.66;4999404;28;45289;-47
2023/04/25 04:14:10;;;;;;;;;3.00;3.00;;;;;20.24;41.78;100682.88;4999112;28;45561;-47
2023/04/25 04:16:36;;;;;;;;;4.00;3.00;;;;;20.27;41.76;100681.88;4998692;28;46022;-49
2023/04/25 04:19:02;;;;;;;;;3.00;3.00;;;;;20.35;41.76;100679.66;4998826;28;45240;-44
2023/04/25 04:21:27;;;;;;;;;3.00;3.00;;;;;20.47;41.22;100696.50;4998981;28;45411;-46
2023/04/25 04:23:54;;;;;;;;;3.00;3.00;;;;;20.47;41.47;100692.13;4999001;28;45405;-48
2023/04/25 04:26:23;;;;;;;;;4.50;3.75;;;;;20.52;40.98;100697.94;4998837;28;47405;-47
2023/04/25 04:28:50;;;;;;;;;5.50;5.00;;;;;20.55;41.08;100703.03;4998891;28;45366;-50
2023/04/25 04:31:15;;;;;;;;;5.75;5.00;;;;;20.54;40.63;100711.03;4998743;28;45432;-50
2023/04/25 04:33:41;;;;;;;;;3.00;3.00;;;;;20.52;40.23;100708.47;4998809;28;45237;-46
2023/04/25 04:36:07;;;;;;;;;6.00;4.33;;;;;20.48;40.51;100706.13;4998045;28;58674;-46
2023/04/25 04:38:33;;;;;;;;;5.00;5.00;;;;;20.48;40.34;100706.97;4998360;28;45393;-47
2023/04/25 04:40:58;;;;;;;;;5.00;4.00;;;;;20.51;40.16;100716.47;4998596;28;45360;-46
2023/04/25 04:43:24;;;;;;;;;5.50;5.50;;;;;20.48;39.94;100719.28;5013847;28;45338;-46
2023/04/25 04:45:50;;;;;;;;;4.25;4.25;;;;;20.49;39.92;100721.84;4998494;28;46414;-47
2023/04/25 04:48:16;;;;;;;;;7.00;5.25;;;;;20.50;39.96;100725.31;4998351;28;45904;-47
2023/04/25 04:50:45;;;;;;;;;4.75;4.25;;;;;20.51;40.48;100725.22;4996679;28;59516;-48
2023/04/25 04:53:11;;;;;;;;;7.50;7.50;;;;;20.52;40.65;100733.97;4998578;28;45563;-47
2023/04/25 04:55:37;;;;;;;;;7.00;5.50;;;;;20.51;40.76;100727.00;4998076;28;46303;-47
2023/04/25 04:58:02;;;;;;;;;7.00;7.00;;;;;20.53;41.17;100733.03;4998258;28;45176;-46
2023/04/25 05:00:29;;;;;;;;;9.00;8.00;;;;;20.54;41.29;100732.94;4998406;28;45234;-47
2023/04/25 05:02:54;;;;;;;;;10.00;9.25;;;;;20.55;41.56;100744.34;5013694;28;45411;-47
2023/04/25 05:05:19;;;;;;;;;10.00;8.00;;;;;20.54;41.63;100751.38;4998377;28;46667;-48
2023/04/25 05:07:45;;;;;;;;;9.00;9.00;;;;;20.53;41.92;100748.84;4997423;28;59786;-46
2023/04/25 05:10:10;;;;;;;;;14.50;11.00;;;;;20.58;43.20;100754.69;4998062;28;45309;-45
2023/04/25 05:12:35;;;;;;;;;12.25;11.00;;;;;20.55;43.31;100755.72;4998263;28;45507;-49
2023/04/25 05:15:01;;;;;;;;;6.00;6.00;;;;;20.53;42.64;100762.00;4997154;28;63967;-45
2023/04/25 05:17:26;;;;;;;;;10.00;10.00;;;;;20.49;42.88;100760.47;4997868;28;45371;-46
2023/04/25 05:19:51;;;;;;;;;10.67;9.33;;;;;20.45;43.18;100765.06;4997580;28;52983;-47
2023/04/25 05:22:16;;;;;;;;;8.33;8.33;;;;;20.43;43.86;100776.63;4997734;28;45528;-46
2023/04/25 05:24:42;;;;;;;;;11.00;9.75;;;;;20.43;43.05;100787.16;4997632;28;50718;-45
2023/04/25 05:27:07;;;;;;;;;9.25;6.25;;;;;20.32;43.61;100778.06;4997724;28;45311;-47
2023/04/25 05:29:33;;;;;;;;;11.00;9.25;;;;;20.33;43.25;100787.66;4997712;28;45456;-46
2023/04/25 05:31:58;;;;;;;;;10.00;8.25;;;;;20.29;43.83;100786.13;4997968;28;45392;-46
2023/04/25 05:34:23;;;;;;;;;9.33;9.00;;;;;20.22;43.96;100790.88;4997503;28;51920;-46
2023/04/25 05:36:49;;;;;;;;;11.33;10.33;;;;;20.18;43.75;100793.75;4997029;28;57362;-45
2023/04/25 05:39:16;;;;;;;;;9.75;8.25;;;;;20.14;43.53;100802.75;4997596;28;45301;-46
2023/04/25 05:41:41;;;;;;;;;8.75;8.75;;;;;20.10;43.82;100811.75;4997686;28;45256;-48
2023/04/25 05:44:07;;;;;;;;;6.50;6.50;;;;;20.03;43.73;100809.44;5012705;28;48526;-47
2023/04/25 05:46:32;;;;;;;;;10.25;10.25;;;;;20.02;43.35;100826.16;4997509;28;45270;-44
2023/04/25 05:48:58;;;;;;;;;8.00;8.00;;;;;20.00;43.50;100824.53;4997658;28;45280;-46
2023/04/25 05:51:23;;;;;;;;;11.00;7.00;;;;;19.93;43.35;100827.50;4997643;28;46926;-45
2023/04/25 05:53:48;;;;;;;;;10.00;9.00;;;;;19.89;43.97;100827.75;4997299;28;46369;-46
2023/04/25 05:56:13;;;;;;;;;10.33;9.00;;;;;19.92;43.93;100838.97;4997009;28;52364;-46
2023/04/25 05:58:39;;;;;;;;;9.25;8.00;;;;;19.89;44.02;100840.91;4997473;28;45209;-45
2023/04/25 06:01:04;;;;;;;;;13.33;8.00;;;;;19.87;44.14;100843.59;4997281;28;45597;-46
2023/04/25 06:03:30;;;;;;;;;7.25;7.00;;;;;19.87;44.05;100842.75;4997108;28;46386;-46
2023/04/25 06:05:55;;;;;;;;;6.75;6.75;;;;;19.82;44.07;100839.47;4997514;28;45320;-46
2023/04/25 06:08:20;;;;;;;;;8.00;8.00;;;;;19.83;44.06;100846.44;4997382;28;45347;-47
2023/04/25 06:10:45;;;;;;;;;9.00;9.00;;;;;19.83;43.39;100854.31;4997146;28;45450;-48
2023/04/25 06:13:11;;;;;;;;;6.33;6.33;;;;;19.76;43.60;100852.03;4996557;28;64557;-48
2023/04/25 06:15:36;;;;;;;;;7.33;6.67;;;;;19.74;43.54;100840.72;4995932;28;65270;-46
2023/04/25 06:18:02;;;;;;;;;7.75;7.75;;;;;19.78;43.81;100844.06;4997178;28;45388;-46
2023/04/25 06:20:27;;;;;;;;;8.75;7.75;;;;;19.77;43.82;100853.72;4997450;28;45359;-51
2023/04/25 06:22:52;;;;;;;;;7.50;6.50;;;;;19.76;43.42;100849.41;4996923;28;45446;-47
2023/04/25 06:25:18;;;;;;;;;14.00;8.75;;;;;19.74;43.46;100850.38;4996905;28;45354;-48
2023/04/25 06:27:43;;;;;;;;;4.50;2.25;;;;;19.73;43.17;100852.19;4996898;28;45305;-46
2023/04/25 06:30:09;;;;;;;;;7.50;6.25;;;;;19.71;43.46;100848.78;4997262;28;45650;-46
2023/04/25 06:32:35;;;;;;;;;9.00;6.00;;;;;19.70;43.44;100852.31;4995991;28;46190;-47
2023/04/25 06:35:00;;;;;;;;;8.00;6.75;;;;;19.68;43.54;100848.09;4996609;28;45248;-50
2023/04/25 06:37:26;;;;;;;;;7.00;7.00;;;;;19.63;43.49;100854.41;4997065;28;45355;-46
2023/04/25 06:39:51;;;;;;;;;9.50;6.75;;;;;19.65;43.61;100861.38;4997050;28;45407;-46
2023/04/25 06:42:17;;;;;;;;;9.75;7.25;;;;;19.60;43.29;100848.47;4996237;28;52833;-47
2023/04/25 06:44:42;;;;;;;;;8.00;6.00;;;;;19.64;43.72;100857.91;4996647;28;45245;-51
2023/04/25 06:47:07;;;;;;;;;6.50;5.50;;;;;19.62;42.99;100855.34;4996676;28;45342;-45
2023/04/25 06:49:32;;;;;;;;;7.50;6.50;;;;;19.58;43.29;100852.97;4996976;28;45541;-45
2023/04/25 06:51:58;;;;;;;;;6.67;6.00;;;;;19.57;43.69;100861.75;4996222;28;58699;-46
2023/04/25 06:54:24;;;;;;;;;5.75;5.50;;;;;19.60;43.61;100880.88;4996467;28;45286;-46
2023/04/25 06:56:50;;;;;;;;;6.25;6.25;;;;;19.56;43.46;100881.97;4996490;28;45423;-46
2023/04/25 06:59:15;;;;;;;;;7.25;6.75;;;;;19.62;43.84;100883.44;4996837;28;45557;-47
2023/04/25 07:01:40;;;;;;;;;6.75;5.50;;;;;19.61;43.51;100892.25;4996341;28;46134;-45
2023/04/25 07:04:06;;;;;;;;;7.00;6.00;;;;;19.61;43.23;100890.47;4996488;28;45347;-47
2023/04/25 07:06:31;;;;;;;;;7.00;6.00;;;;;19.59;43.31;100891.47;4996385;28;45367;-47
2023/04/25 07:08:56;;;;;;;;;6.75;6.00;;;;;19.52;43.28;100885.66;4996883;28;45251;-46
2023/04/25 07:11:22;;;;;;;;;5.25;5.25;;;;;19.59;43.07;100896.72;4996222;28;45348;-46
2023/04/25 07:13:47;;;;;;;;;8.50;6.00;;;;;19.59;43.19;100896.72;5011303;28;49357;-46
2023/04/25 07:16:12;;;;;;;;;8.33;7.33;;;;;19.53;43.04;100907.56;4995969;28;48129;-48
2023/04/25 07:18:37;;;;;;;;;9.00;6.75;;;;;19.57;43.08;100903.84;4996477;28;45241;-46
2023/04/25 07:21:03;;;;;;;;;6.00;6.00;;;;;19.55;43.04;100908.34;4995436;28;64410;-46
2023/04/25 07:23:28;;;;;;;;;10.50;6.00;;;;;19.55;42.66;100901.28;4996392;28;45470;-47
2023/04/25 07:25:53;;;;;;;;;6.00;6.00;;;;;19.53;42.85;100913.66;4996191;28;45393;-46
2023/04/25 07:28:19;;;;;;;;;8.50;6.50;;;;;19.52;43.08;100921.63;5011532;28;45490;-45
2023/04/25 07:30:44;;;;;;;;;7.75;6.25;;;;;19.51;42.74;100930.44;4994815;28;46556;-46
2023/04/25 07:33:10;;;;;;;;;6.25;6.25;;;;;19.46;42.68;100923.63;4995982;28;45212;-48
2023/04/25 07:35:35;;;;;;;;;8.00;6.25;;;;;19.47;43.06;100930.59;4996180;28;45264;-46
2023/04/25 07:38:02;;;;;;;;;6.25;6.25;;;;;19.49;43.25;100937.53;4996689;28;45493;-46
2023/04/25 07:40:27;;;;;;;;;6.00;6.00;;;;;19.47;42.59;100941.09;4995837;28;45506;-43
2023/04/25 07:42:52;;;;;;;;;7.25;7.25;;;;;19.49;43.18;100945.44;4995950;28;45283;-44
2023/04/25 07:45:18;;;;;;;;;7.25;6.25;;;;;19.50;42.97;100952.41;4998243;28;45681;-46
2023/04/25 07:47:43;;;;;;;;;7.33;6.33;;;;;19.51;42.79;100954.09;4999179;28;46659;-43
2023/04/25 07:50:09;;;;;;;;;6.75;6.00;;;;;19.46;43.07;100952.53;4999297;28;46625;-44
2023/04/25 07:52:35;;;;;;;;;7.75;7.00;;;;;19.45;42.58;100958.75;4999113;28;45466;-45
2023/04/25 07:55:00;;;;;;;;;6.50;6.50;;;;;19.44;42.96;100962.31;4999433;28;45400;-46
2023/04/25 07:57:26;;;;;;;;;9.33;8.33;;;;;19.44;42.21;100966.69;4998643;28;58134;-43
2023/04/25 07:59:52;;;;;;;;;10.25;8.00;;;;;19.41;42.64;100966.81;4988163;28;46316;-45
2023/04/25 08:02:17;;;;;;;;;9.50;7.00;;;;;19.39;42.11;100971.34;4979323;28;45310;-45
2023/04/25 08:04:42;;;;;;;;;9.00;7.33;;;;;19.37;42.44;100974.00;4979224;28;45836;-44
2023/04/25 08:07:08;;;;;;;;;11.75;7.75;;;;;19.36;42.27;100971.47;4979548;28;45508;-48
2023/04/25 08:09:35;;;;;;;;;11.00;7.00;;;;;19.33;42.20;100975.09;4979472;28;45371;-46
2023/04/25 08:12:01;;;;;;;;;9.00;8.00;;;;;19.34;42.29;100986.47;4979577;28;45249;-46
2023/04/25 08:14:28;;;;;;;;;8.25;8.25;;;;;19.33;41.58;100998.75;4979331;28;45476;-43
2023/04/25 08:16:54;;;;;;;;;7.00;7.00;;;;;19.33;41.81;101001.38;4979501;28;45495;-45
2023/04/25 08:19:19;;;;;;;;;8.00;6.75;;;;;19.34;41.61;101007.47;4979283;28;46277;-47
2023/04/25 08:21:45;;;;;;;;;14.00;8.00;;;;;19.34;41.65;101012.75;4979068;28;45561;-45
2023/04/25 08:24:10;;;;;;;;;11.00;9.25;;;;;19.31;41.94;101011.94;4979257;28;45333;-42
2023/04/25 08:26:37;;;;;;;;;10.75;9.00;;;;;19.30;41.88;101012.03;4979620;28;45534;-46
2023/04/25 08:29:02;;;;;;;;;9.50;7.25;;;;;19.32;41.86;101015.44;4979215;28;47088;-43
2023/04/25 08:31:27;;;;;;;;;7.25;7.00;;;;;19.31;41.87;101013.75;4979131;28;45424;-42
2023/04/25 08:33:53;;;;;;;;;10.50;8.00;;;;;19.31;41.95;101027.72;4979133;28;45450;-43
2023/04/25 17:03:09;;;;;;;;;4.50;3.75;;;;;19.64;36.16;101202.38;4976367;26;45572;-57
2023/04/25 17:05:35;;;;;;;;;4.50;4.00;;;;;19.68;35.98;101196.03;5018293;28;45339;-54
2023/04/25 17:08:00;;;;;;;;;4.25;3.00;;;;;19.68;36.09;101201.28;5017702;28;45347;-53
2023/04/25 17:10:26;;;;;;;;;7.00;4.00;;;;;19.65;35.90;101192.69;5017958;28;45371;-56
2023/04/25 17:12:52;;;;;;;;;5.75;4.75;;;;;19.66;35.56;101192.63;5018065;28;45284;-55
2023/04/25 17:15:17;;;;;;;;;6.00;4.50;;;;;19.70;35.79;101201.22;5018405;28;45236;-53
2023/04/25 17:17:43;;;;;;;;;5.00;4.00;;;;;19.67;35.40;101196.97;5017336;28;46471;-46
2023/04/25 17:20:08;;;;;;;;;5.25;4.00;;;;;19.69;35.46;101189.84;5017699;28;45243;-50
2023/04/25 17:22:36;;;;;;;;;7.50;3.75;;;;;19.66;35.23;101182.13;5017910;28;45804;-51
2023/04/25 17:25:05;;;;;;;;;4.00;4.00;;;;;19.70;35.62;101198.59;5017809;28;45521;-56
2023/04/25 17:27:31;;;;;;;;;5.50;4.75;;;;;19.69;35.71;101189.00;5017360;28;45337;-54
2023/04/25 17:29:57;;;;;;;;;4.50;4.50;;;;;19.70;35.15;101180.19;5017696;28;45235;-56
2023/04/25 17:32:22;;;;;;;;;8.00;5.25;;;;;19.69;35.47;101187.22;5017669;28;45221;-56
2023/04/25 17:34:47;;;;;;;;;6.00;5.00;;;;;19.65;34.85;101180.41;5017683;28;46754;-53
2023/04/25 17:37:15;;;;;;;;;9.00;5.33;;;;;19.66;35.07;101176.88;5017154;28;53989;-48
2023/04/25 17:39:44;;;;;;;;;5.25;5.00;;;;;19.67;35.00;101193.47;5017244;28;45913;-53
2023/04/25 17:42:10;;;;;;;;;4.00;4.00;;;;;19.66;35.41;101197.91;5017583;28;45350;-45
2023/04/25 17:44:37;;;;;;;;;5.00;5.00;;;;;19.67;35.17;101198.75;5017622;28;45355;-57
2023/04/25 17:47:02;;;;;;;;;5.00;5.00;;;;;19.65;35.35;101201.44;5015823;28;46210;-55
2023/04/25 17:49:27;;;;;;;;;8.50;6.00;;;;;19.64;35.00;101194.47;5017234;28;45339;-57
2023/04/25 17:51:53;;;;;;;;;5.00;4.75;;;;;19.59;34.75;101180.69;5017287;28;45248;-52
2023/04/25 17:54:21;;;;;;;;;6.33;5.00;;;;;19.61;35.32;101190.22;5017374;28;45174;-54
2023/04/25 17:56:47;;;;;;;;;6.00;6.00;;;;;19.61;34.73;101191.97;5017217;28;45705;-56
2023/04/25 17:59:12;;;;;;;;;6.00;6.00;;;;;19.57;35.47;101195.66;5017030;28;45383;-56
2023/04/25 18:01:38;;;;;;;;;5.75;5.75;;;;;19.56;35.30;101188.72;5015821;28;45341;-56
2023/04/25 18:04:04;;;;;;;;;8.00;7.00;;;;;19.59;34.92;101199.09;5017258;28;45448;-56
2023/04/25 18:06:31;;;;;;;;;8.00;7.00;;;;;19.59;35.45;101199.09;5016900;28;45984;-51
2023/04/25 18:08:57;;;;;;;;;9.00;5.25;;;;;19.55;35.75;101194.91;5016981;28;45298;-56
2023/04/25 18:11:22;;;;;;;;;8.50;8.00;;;;;19.53;35.50;101191.50;5017161;28;45262;-44
2023/04/25 18:13:48;;;;;;;;;4.50;4.50;;;;;19.55;35.16;101197.53;5017607;28;45531;-49
2023/04/25 18:16:13;;;;;;;;;8.00;6.25;;;;;19.54;35.73;101209.81;5016906;28;45255;-50
2023/04/25 18:18:41;;;;;;;;;10.00;7.25;;;;;19.53;35.33;101204.63;5016950;28;45232;-44
2023/04/25 18:21:08;;;;;;;;;6.00;6.00;;;;;19.52;35.22;101219.53;5016916;28;45331;-51
2023/04/25 18:23:34;;;;;;;;;8.50;7.50;;;;;19.46;35.46;101207.53;5016985;28;45590;-45
2023/04/25 18:25:59;;;;;;;;;7.25;6.25;;;;;19.51;35.65;101211.72;5015413;28;47956;-45
2023/04/25 18:28:24;;;;;;;;;7.00;7.00;;;;;19.45;35.35;101205.84;5014430;28;45380;-48
2023/04/25 18:30:50;;;;;;;;;5.25;5.25;;;;;19.47;35.53;101211.84;5017172;28;45393;-49
2023/04/25 18:33:16;;;;;;;;;8.50;7.50;;;;;19.45;35.61;101213.72;5015695;28;45406;-54
2023/04/25 18:35:42;;;;;;;;;7.00;6.00;;;;;19.45;35.39;101218.97;5016404;28;46340;-54
2023/04/25 18:38:07;;;;;;;;;8.50;7.00;;;;;19.46;35.52;101228.56;5016441;28;45224;-57
2023/04/25 18:40:32;;;;;;;;;6.50;6.50;;;;;19.44;35.48;101230.41;5015431;28;45258;-55
2023/04/25 18:42:59;;;;;;;;;7.00;4.75;;;;;19.44;35.82;101230.41;5016761;28;45461;-53
2023/04/25 18:45:24;;;;;;;;;7.00;6.25;;;;;19.38;35.76;101225.41;5015198;28;45961;-50
2023/04/25 18:47:49;;;;;;;;;10.50;8.00;;;;;19.45;35.78;101226.88;5016475;28;45353;-56
2023/04/25 18:50:19;;;;;;;;;6.50;5.00;;;;;19.47;35.16;101230.25;5016388;28;45280;-56
2023/04/25 18:52:44;;;;;;;;;6.75;6.75;;;;;19.46;35.51;101233.81;5016506;28;45394;-56
2023/04/25 18:55:09;;;;;;;;;8.75;6.25;;;;;19.50;35.28;101239.81;5015097;28;47232;-54
2023/04/25 18:57:35;;;;;;;;;8.00;6.25;;;;;19.52;35.71;101237.09;5016218;28;45423;-49
2023/04/25 19:00:04;;;;;;;;;8.00;8.00;;;;;19.53;35.68;101234.38;5016410;28;45253;-57
2023/04/25 19:02:29;;;;;;;;;15.00;8.00;;;;;19.51;35.32;101228.38;5016250;28;45553;-57
2023/04/25 19:04:54;;;;;;;;;8.00;6.50;;;;;19.54;35.51;101240.53;5015276;28;68576;-54
2023/04/25 19:07:21;;;;;;;;;10.75;7.50;;;;;19.55;35.01;101242.22;5014739;28;49353;-53
2023/04/25 19:09:46;;;;;;;;;11.75;7.50;;;;;19.56;35.16;101246.56;5016256;28;45417;-53
2023/04/25 19:12:12;;;;;;;;;9.75;6.00;;;;;19.55;35.30;101242.22;5016300;28;45497;-49
2023/04/25 19:14:37;;;;;;;;;10.00;7.25;;;;;19.57;35.53;101245.63;5016010;28;46306;-48
2023/04/25 19:17:03;;;;;;;;;6.50;6.50;;;;;19.52;35.13;101239.72;5016075;28;45351;-51
2023/04/25 19:19:28;;;;;;;;;6.50;6.50;;;;;19.54;35.64;101256.28;5016127;28;45425;-52
2023/04/25 19:21:54;;;;;;;;;6.00;6.00;;;;;19.50;35.57;101254.72;4998902;28;45426;-53
2023/04/25 19:24:19;;;;;;;;;6.00;6.00;;;;;19.50;35.53;101257.34;5015918;28;45604;-49
2023/04/25 19:26:45;;;;;;;;;4.75;4.00;;;;;19.48;35.49;101260.06;5015789;28;45307;-55
2023/04/25 19:29:13;;;;;;;;;8.25;7.00;;;;;19.46;35.31;101254.00;5016104;28;45257;-53
2023/04/25 19:31:42;;;;;;;;;7.00;6.00;;;;;19.44;35.67;101258.47;5014920;28;45384;-57
2023/04/25 19:34:11;;;;;;;;;6.50;5.00;;;;;19.44;35.46;101267.22;5015707;28;46264;-55
2023/04/25 19:36:39;;;;;;;;;6.00;6.00;;;;;19.43;35.65;101265.50;5015901;28;46019;-58
2023/04/25 19:39:06;;;;;;;;;6.00;6.00;;;;;19.38;35.53;101251.69;5016436;28;45308;-57
2023/04/25 19:41:32;;;;;;;;;6.50;6.50;;;;;19.44;35.53;101269.84;5019555;28;45451;-56
2023/04/25 19:44:03;;;;;;;;;9.00;7.00;;;;;19.44;35.61;101268.97;5019102;28;45386;-51